createdAt,value
2022-07-29T00:01:33.100Z,3.30
2022-07-29T00:06:41.325Z,3.70
2022-07-29T00:11:50.013Z,4.40
2022-07-29T00:16:58.518Z,3.50
2022-07-29T00:22:06.419Z,3.50
2022-07-29T00:27:14.331Z,4.30
2022-07-29T00:32:22.370Z,3.90
2022-07-29T00:37:30.504Z,3.10
2022-07-29T00:42:46.431Z,3.00
2022-07-29T00:47:54.436Z,3.80
2022-07-29T00:53:02.881Z,3.50
2022-07-29T00:58:11.406Z,3.30
2022-07-29T01:03:19.819Z,2.80
2022-07-29T01:08:28.625Z,2.80
2022-07-29T01:13:37.631Z,2.70
2022-07-29T01:18:49.777Z,2.80
2022-07-29T01:24:21.029Z,2.40
2022-07-29T01:29:35.975Z,2.30
2022-07-29T01:34:53.619Z,1.70
2022-07-29T01:40:04.578Z,2.30
2022-07-29T01:45:18.570Z,2.20
2022-07-29T01:50:31.287Z,2.10
2022-07-29T01:55:41.628Z,1.90
2022-07-29T02:00:51.417Z,1.90
2022-07-29T02:06:02.698Z,1.60
2022-07-29T02:11:11.765Z,1.60
2022-07-29T02:16:23.986Z,1.70
2022-07-29T02:21:35.779Z,1.60
2022-07-29T02:26:45.798Z,1.40
2022-07-29T02:31:56.512Z,1.60
2022-07-29T02:37:06.388Z,2.20
2022-07-29T02:42:18.182Z,2.40
2022-07-29T02:47:41.429Z,2.20
2022-07-29T02:52:56.816Z,1.90
2022-07-29T02:58:11.897Z,1.40
2022-07-29T03:03:21.727Z,1.30
2022-07-29T03:08:31.308Z,1.30
2022-07-29T03:13:40.294Z,1.40
2022-07-29T03:18:49.551Z,1.30
2022-07-29T03:23:58.624Z,1.00
2022-07-29T03:29:06.667Z,0.70
2022-07-29T03:34:15.366Z,0.90
2022-07-29T03:39:27.695Z,1.00
2022-07-29T03:44:37.626Z,0.90
2022-07-29T03:49:49.335Z,0.80
2022-07-29T03:54:57.707Z,1.00
2022-07-29T04:00:07.248Z,1.10
2022-07-29T04:05:19.742Z,1.00
2022-07-29T04:10:31.743Z,0.90
2022-07-29T04:15:41.293Z,0.70
2022-07-29T04:20:49.964Z,0.80
2022-07-29T04:25:58.500Z,0.60
2022-07-29T04:31:06.902Z,0.90
2022-07-29T04:36:26.880Z,0.70
2022-07-29T04:41:38.507Z,0.60
2022-07-29T04:46:46.760Z,0.90
2022-07-29T04:51:55.173Z,1.20
2022-07-29T04:57:03.618Z,1.00
2022-07-29T05:02:11.758Z,0.80
2022-07-29T05:07:20.198Z,0.90
2022-07-29T05:12:29.055Z,0.90
2022-07-29T05:17:37.387Z,0.70
2022-07-29T05:22:45.508Z,0.70
2022-07-29T05:27:54.835Z,0.70
2022-07-29T05:33:02.969Z,0.50
2022-07-29T05:38:11.018Z,0.50
2022-07-29T05:43:19.023Z,0.60
2022-07-29T05:48:27.342Z,0.50
2022-07-29T05:53:35.462Z,0.50
2022-07-29T05:58:43.689Z,0.50
2022-07-29T06:03:52.239Z,0.40
2022-07-29T06:09:00.294Z,0.50
2022-07-29T06:14:21.202Z,0.40
2022-07-29T06:19:30.222Z,0.50
2022-07-29T06:24:42.821Z,0.40
2022-07-29T06:29:51.364Z,0.40
2022-07-29T06:35:24.448Z,0.30
2022-07-29T06:40:45.605Z,0.50
2022-07-29T06:45:53.693Z,0.30
2022-07-29T06:51:03.261Z,0.60
2022-07-29T06:56:14.044Z,0.40
2022-07-29T07:01:22.773Z,0.40
2022-07-29T07:06:31.205Z,0.40
2022-07-29T07:11:39.833Z,0.30
2022-07-29T07:16:48.013Z,0.40
2022-07-29T07:21:55.363Z,0.30
2022-07-29T07:27:04.044Z,0.30
2022-07-29T07:32:14.615Z,0.30
2022-07-29T07:37:23.591Z,0.40
2022-07-29T07:42:32.000Z,0.50
2022-07-29T07:47:40.764Z,0.40
2022-07-29T07:52:59.141Z,0.40
2022-07-29T07:58:08.142Z,0.40
2022-07-29T08:03:17.373Z,0.30
2022-07-29T08:08:26.392Z,0.30
2022-07-29T08:13:35.266Z,0.40
2022-07-29T08:18:45.508Z,0.30
2022-07-29T08:24:00.642Z,0.40
2022-07-29T08:29:09.840Z,0.40
2022-07-29T08:34:18.051Z,0.30
2022-07-29T08:39:26.720Z,0.40
2022-07-29T08:44:37.098Z,0.40
2022-07-29T08:49:46.542Z,0.40
2022-07-29T08:54:55.888Z,0.30
2022-07-29T09:00:08.188Z,0.40
2022-07-29T09:05:21.184Z,0.30
2022-07-29T09:10:29.359Z,0.30
2022-07-29T09:15:37.403Z,0.30
2022-07-29T09:21:15.005Z,0.30
2022-07-29T09:26:31.629Z,0.30
2022-07-29T09:31:42.033Z,0.30
2022-07-29T09:36:53.366Z,0.30
2022-07-29T09:42:03.851Z,0.30
2022-07-29T09:47:12.415Z,0.40
2022-07-29T09:52:20.601Z,0.40
2022-07-29T09:57:31.129Z,0.40
2022-07-29T10:02:40.917Z,0.40
2022-07-29T10:07:57.173Z,0.30
2022-07-29T10:13:13.453Z,0.30
2022-07-29T10:18:24.542Z,0.30
2022-07-29T10:23:47.130Z,0.20
2022-07-29T10:28:56.484Z,0.30
2022-07-29T10:34:17.911Z,0.20
2022-07-29T10:39:49.690Z,0.20
2022-07-29T10:44:59.304Z,0.30
2022-07-29T10:50:12.816Z,0.30
2022-07-29T10:55:43.051Z,0.30
2022-07-29T11:00:54.204Z,0.30
2022-07-29T11:06:02.103Z,0.30
2022-07-29T11:11:43.898Z,0.40
2022-07-29T11:17:08.716Z,0.30
2022-07-29T11:27:44.657Z,0.40
2022-07-29T11:32:54.656Z,0.30
2022-07-29T11:38:29.297Z,0.30
2022-07-29T11:43:53.821Z,0.40
2022-07-29T11:49:03.542Z,0.30
2022-07-29T11:54:27.227Z,0.20
2022-07-29T11:59:43.104Z,0.30
2022-07-29T12:04:58.617Z,0.40
2022-07-29T12:10:11.450Z,0.30
2022-07-29T12:15:46.286Z,0.30
2022-07-29T12:21:05.192Z,0.40
2022-07-29T12:26:25.397Z,0.30
2022-07-29T12:31:43.517Z,0.20
2022-07-29T12:36:53.155Z,0.60
2022-07-29T12:42:04.206Z,0.80
2022-07-29T12:47:13.076Z,0.50
2022-07-29T12:52:35.022Z,0.40
2022-07-29T12:57:53.634Z,0.40
2022-07-29T13:03:03.672Z,0.40
2022-07-29T13:08:29.640Z,0.40
2022-07-29T13:14:05.738Z,0.20
2022-07-29T13:19:16.587Z,0.30
2022-07-29T13:24:24.630Z,0.40
2022-07-29T13:29:33.327Z,0.40
2022-07-29T13:34:42.022Z,0.40
2022-07-29T13:39:53.017Z,0.30
2022-07-29T13:45:02.484Z,0.40
2022-07-29T13:50:12.755Z,0.30
2022-07-29T13:55:21.028Z,0.40
2022-07-29T14:00:29.122Z,0.30
2022-07-29T14:05:38.811Z,0.40
2022-07-29T14:10:47.269Z,0.30
2022-07-29T14:15:56.300Z,0.30
2022-07-29T14:21:05.088Z,0.30
2022-07-29T14:31:47.719Z,0.40
2022-07-29T14:36:57.367Z,0.30
2022-07-29T14:42:05.401Z,0.40
2022-07-29T14:47:13.788Z,0.40
2022-07-29T14:52:23.135Z,0.40
2022-07-29T14:57:31.355Z,0.30
2022-07-29T15:03:00.347Z,0.30
2022-07-29T15:08:09.642Z,0.40
2022-07-29T15:13:18.810Z,0.20
2022-07-29T15:18:27.461Z,0.30
2022-07-29T15:23:37.698Z,0.40
2022-07-29T15:28:46.178Z,0.30
2022-07-29T15:33:57.643Z,0.80
2022-07-29T15:39:08.641Z,0.90
2022-07-29T15:44:17.330Z,0.40
2022-07-29T15:49:47.361Z,0.30
2022-07-29T15:54:59.265Z,0.30
2022-07-29T16:00:09.248Z,0.40
2022-07-29T16:05:17.896Z,0.30
2022-07-29T16:10:26.664Z,0.40
2022-07-29T16:15:35.153Z,0.40
2022-07-29T16:20:43.460Z,0.50
2022-07-29T16:26:01.281Z,0.30
2022-07-29T16:31:11.860Z,0.30
2022-07-29T16:36:20.899Z,0.40
2022-07-29T16:41:30.162Z,0.40
2022-07-29T16:46:39.006Z,0.40
2022-07-29T16:51:49.361Z,0.40
2022-07-29T16:57:01.141Z,0.20
2022-07-29T17:02:10.445Z,0.30
2022-07-29T17:07:19.639Z,0.30
2022-07-29T17:12:28.010Z,0.30
2022-07-29T17:17:38.903Z,0.40
2022-07-29T17:22:47.771Z,0.30
2022-07-29T17:28:00.548Z,0.20
2022-07-29T17:33:09.296Z,0.30
2022-07-29T17:38:18.210Z,0.30
2022-07-29T17:43:26.898Z,0.40
2022-07-29T17:48:35.729Z,0.40
2022-07-29T17:53:43.901Z,0.30
2022-07-29T17:58:52.439Z,0.50
2022-07-29T18:04:00.489Z,0.40
2022-07-29T18:09:08.421Z,0.40
2022-07-29T18:14:17.495Z,0.60
2022-07-29T18:19:25.678Z,1.30
2022-07-29T18:24:34.428Z,1.90
2022-07-29T18:29:42.536Z,2.70
2022-07-29T18:34:50.590Z,1.80
2022-07-29T18:39:59.636Z,1.60
2022-07-29T18:45:12.115Z,1.40
2022-07-29T18:50:29.966Z,1.50
2022-07-29T18:55:38.281Z,1.60
2022-07-29T19:00:46.802Z,1.30
2022-07-29T19:05:55.992Z,1.30
2022-07-29T19:11:04.254Z,1.20
2022-07-29T19:16:14.371Z,1.30
2022-07-29T19:21:22.770Z,1.40
2022-07-29T19:26:31.260Z,1.20
2022-07-29T19:31:40.679Z,1.20
2022-07-29T19:36:49.791Z,1.10
2022-07-29T19:42:02.926Z,1.20
2022-07-29T19:47:12.047Z,1.40
2022-07-29T19:52:27.249Z,7.20
2022-07-29T19:57:41.117Z,8.90
2022-07-29T20:02:52.232Z,6.30
2022-07-29T20:08:00.745Z,3.70
2022-07-29T20:13:09.792Z,2.50
2022-07-29T20:18:18.594Z,1.40
2022-07-29T20:23:27.893Z,1.00
2022-07-29T20:28:45.273Z,0.80
2022-07-29T20:33:56.976Z,0.90
2022-07-29T20:39:05.830Z,0.70
2022-07-29T20:44:15.365Z,0.70
2022-07-29T20:49:24.172Z,0.90
2022-07-29T20:54:32.534Z,0.60
2022-07-29T20:59:45.646Z,0.80
2022-07-29T21:04:55.602Z,0.80
2022-07-29T21:10:03.643Z,0.90
2022-07-29T21:15:14.290Z,0.70
2022-07-29T21:20:23.510Z,0.80
2022-07-29T21:25:34.867Z,0.90
2022-07-29T21:30:43.670Z,0.70
2022-07-29T21:36:20.292Z,0.90
2022-07-29T21:41:22.306Z,0.70
2022-07-29T21:46:30.150Z,0.90
2022-07-29T21:51:38.247Z,0.70
2022-07-29T21:56:51.077Z,0.70
2022-07-29T22:02:01.372Z,0.90
2022-07-29T22:07:09.487Z,0.70
2022-07-29T22:12:18.084Z,0.70
2022-07-29T22:17:26.280Z,0.80
2022-07-29T22:22:34.509Z,0.70
2022-07-29T22:27:43.401Z,0.80
2022-07-29T22:32:51.543Z,0.70
2022-07-29T22:37:59.500Z,1.00
2022-07-29T22:43:07.772Z,1.10
2022-07-29T22:48:15.950Z,1.30
2022-07-29T22:53:24.181Z,1.70
2022-07-29T22:58:32.350Z,1.70
2022-07-29T23:03:39.721Z,1.50
2022-07-29T23:08:47.846Z,1.70
2022-07-29T23:13:55.861Z,2.20
2022-07-29T23:19:03.782Z,1.40
2022-07-29T23:24:12.133Z,1.30
2022-07-29T23:29:19.978Z,1.20
2022-07-29T23:34:28.241Z,1.10
2022-07-29T23:39:36.299Z,1.10
2022-07-29T23:44:44.801Z,1.10
2022-07-29T23:49:52.777Z,1.20
2022-07-29T23:55:38.822Z,2.20
